Time;durP1;ratioP1;P1;durP2;ratioP2;P2;SDS_P1;SDS_P2;PMS_P1;PMS_P2;Temp;Humidity;BMP_temperature;BMP_pressure;BME280_temperature;BME280_humidity;BME280_pressure;Samples;Min_cycle;Max_cycle;Signal;HPM_P1;HPM_P2
2021/12/11 00:00:18;;;;;;;2.72;2.62;;;;;;;-0.32;100.00;100024.06;4379019;32;20063;-70
2021/12/11 00:02:44;;;;;;;3.78;3.65;;;;;;;-0.35;100.00;100021.53;4379655;32;20128;-70
2021/12/11 00:05:12;;;;;;;2.30;2.20;;;;;;;-0.39;100.00;100030.22;4360903;32;20090;-70
2021/12/11 00:07:37;;;;;;;4.65;4.43;;;;;;;-0.45;100.00;100022.59;4347138;32;20088;-72
2021/12/11 00:10:20;;;;;;;2.97;2.75;;;;;;;-1.98;100.00;99802.00;4327931;32;20505;-70
2021/12/11 00:12:48;;;;;;;3.83;3.70;;;;;;;-0.52;100.00;100037.31;4332723;32;20067;-70
2021/12/11 00:15:23;;;;;;;2.50;2.40;;;;;;;-0.54;100.00;100045.94;4326304;32;20085;-70
2021/12/11 00:17:48;;;;;;;4.82;4.57;;;;;;;-0.48;100.00;100048.41;4327644;32;20081;-71
2021/12/11 00:20:24;;;;;;;2.40;2.30;;;;;;;-0.93;100.00;99994.22;4346926;32;20099;-70
2021/12/11 00:22:50;;;;;;;4.32;4.12;;;;;;;-0.50;100.00;100063.03;4328333;32;20162;-71
2021/12/11 00:25:15;;;;;;;2.35;2.25;;;;;;;-0.52;100.00;100070.81;4358052;32;20667;-69
2021/12/11 00:27:42;;;;;;;4.22;4.03;;;;;;;-0.51;100.00;100077.66;4407534;32;20153;-71
2021/12/11 00:30:10;;;;;;;3.25;3.05;;;;;;;-0.52;100.00;100083.72;4331249;32;20163;-70
2021/12/11 00:32:35;;;;;;;3.70;3.45;;;;;;;-0.56;100.00;100092.38;4342517;32;20077;-71
2021/12/11 00:35:10;;;;;;;2.50;2.40;;;;;;;-0.51;100.00;100090.56;4361960;32;20066;-72
2021/12/11 00:37:35;;;;;;;2.70;2.60;;;;;;;-0.83;100.00;100053.28;4337134;32;20085;-72
2021/12/11 00:40:05;;;;;;;2.40;2.30;;;;;;;-0.68;100.00;100096.00;4332030;32;20070;-71
2021/12/11 00:42:34;;;;;;;2.50;2.40;;;;;;;-0.71;100.00;100108.91;4327552;32;20629;-71
2021/12/11 00:45:13;;;;;;;2.50;2.40;;;;;;;-0.66;100.00;100117.44;4336279;32;20150;-71
2021/12/11 00:47:45;;;;;;;3.62;3.53;;;;;;;-0.67;100.00;100125.19;4332505;32;20066;-71
2021/12/11 00:50:11;;;;;;;2.53;2.43;;;;;;;-0.60;100.00;100129.38;4318748;32;20633;-70
2021/12/11 00:52:42;;;;;;;3.05;2.95;;;;;;;-0.80;100.00;100078.16;4335621;32;20512;-71
2021/12/11 00:55:21;;;;;;;3.85;3.55;;;;;;;-0.35;100.00;100136.72;4333735;32;20093;-71
2021/12/11 00:57:47;;;;;;;4.25;4.05;;;;;;;-0.27;100.00;100124.53;4397286;32;20683;-71
2021/12/11 01:00:17;;;;;;;2.30;2.20;;;;;;;-0.10;100.00;100137.12;4374321;32;20087;-70
2021/12/11 01:02:44;;;;;;;3.87;3.72;;;;;;;-0.08;100.00;100143.09;4353932;32;20074;-71
2021/12/11 01:05:09;;;;;;;2.83;2.72;;;;;;;-0.05;100.00;100181.75;4357412;32;20216;-70
2021/12/11 01:07:35;;;;;;;2.50;2.40;;;;;;;0.06;100.00;100169.53;4367249;32;20668;-71
2021/12/11 01:10:14;;;;;;;2.20;2.10;;;;;;;0.03;100.00;100168.72;4405876;32;20679;-71
2021/12/11 01:12:50;;;;;;;3.65;3.55;;;;;;;-0.13;100.00;100175.87;4345833;32;20129;-71
2021/12/11 01:15:31;;;;;;;4.55;4.35;;;;;;;-0.10;100.00;100186.13;4396306;32;20074;-70
2021/12/11 01:21:04;;;;;;;4.00;3.83;;;;;;;-0.07;100.00;100199.84;4335974;32;20120;-70
2021/12/11 01:25:58;;;;;;;2.50;2.40;;;;;;;0.01;100.00;100219.50;4347463;32;20085;-71
2021/12/11 01:28:23;;;;;;;2.40;2.30;;;;;;;-0.10;100.00;100223.13;4342729;32;20802;-70
2021/12/11 01:30:48;;;;;;;4.37;4.18;;;;;;;-0.01;100.00;100227.25;4331021;32;20071;-70
2021/12/11 01:33:14;;;;;;;2.47;2.37;;;;;;;0.02;100.00;100228.94;4353982;32;20089;-72
2021/12/11 01:35:40;;;;;;;2.80;2.70;;;;;;;0.06;100.00;100243.47;4363986;32;20517;-70
2021/12/11 01:38:27;;;;;;;2.40;2.30;;;;;;;-0.05;100.00;100243.66;4393660;32;20167;-71
2021/12/11 01:40:56;;;;;;;3.58;3.47;;;;;;;0.05;100.00;100257.28;4329943;32;20082;-71
2021/12/11 01:43:22;;;;;;;2.37;2.28;;;;;;;-1.15;100.00;100060.66;4322107;32;20067;-71
2021/12/11 01:45:49;;;;;;;2.40;2.30;;;;;;;0.12;100.00;100266.59;4330177;32;20059;-71
2021/12/11 01:48:16;;;;;;;2.85;2.75;;;;;;;0.09;100.00;100272.66;4369497;32;20214;-70
2021/12/11 01:50:44;;;;;;;3.58;3.47;;;;;;;0.22;100.00;100282.78;4335039;32;20125;-72
2021/12/11 01:53:19;;;;;;;2.37;2.28;;;;;;;0.23;100.00;100295.66;4346037;32;20653;-71
2021/12/11 01:55:48;;;;;;;3.60;3.50;;;;;;;0.27;100.00;100299.91;4340073;32;20673;-71
2021/12/11 01:58:16;;;;;;;2.40;2.30;;;;;;;0.29;100.00;100310.22;4397907;32;20625;-71
2021/12/11 02:00:45;;;;;;;3.67;3.58;;;;;;;0.32;100.00;100316.19;4409253;32;20599;-71
2021/12/11 02:03:14;;;;;;;2.42;2.33;;;;;;;0.34;100.00;100314.44;4354834;32;20185;-70
2021/12/11 02:05:39;;;;;;;3.95;3.78;;;;;;;0.28;100.00;100301.63;4348528;32;20070;-70
2021/12/11 02:08:07;;;;;;;2.50;2.40;;;;;;;0.45;100.00;100326.31;4401843;32;20127;-70
2021/12/11 02:10:37;;;;;;;2.35;2.25;;;;;;;0.29;100.00;100305.88;4414976;32;20084;-72
2021/12/11 02:13:05;;;;;;;2.83;2.72;;;;;;;0.46;100.00;100333.16;4420590;32;20585;-70
2021/12/11 02:15:36;;;;;;;2.50;2.40;;;;;;;0.52;100.00;100333.91;4368836;32;20140;-71
2021/12/11 02:18:11;;;;;;;2.83;2.72;;;;;;;0.56;100.00;100343.31;4419820;32;20081;-70
2021/12/11 02:20:54;;;;;;;3.00;2.90;;;;;;;0.62;100.00;100351.81;4397341;32;20072;-72
2021/12/11 02:23:21;;;;;;;3.60;3.03;;;;;;;0.64;100.00;100350.06;4411617;32;20086;-72
2021/12/11 02:25:49;;;;;;;4.18;3.97;;;;;;;0.68;100.00;100360.34;4375272;32;20066;-70
2021/12/11 02:28:24;;;;;;;2.60;2.50;;;;;;;0.70;100.00;100358.59;4386955;32;20244;-71
2021/12/11 02:31:10;;;;;;;4.05;3.85;;;;;;;0.59;100.00;100350.16;4406500;32;20057;-71
2021/12/11 02:33:45;;;;;;;3.22;3.03;;;;;;;0.72;100.00;100371.44;4345368;32;20080;-71
2021/12/11 02:36:44;;;;;;;2.60;2.50;;;;;;;0.79;100.00;100373.91;4326056;32;20456;-71
2021/12/11 02:39:21;;;;;;;2.40;2.30;;;;;;;0.77;100.00;100369.66;4323235;32;20135;-71
2021/12/11 02:41:52;;;;;;;3.83;3.70;;;;;;;0.85;100.00;100379.84;4336236;32;20082;-71
2021/12/11 02:44:31;;;;;;;2.70;2.60;;;;;;;0.87;100.00;100375.50;4348131;32;20094;-72
2021/12/11 02:47:04;;;;;;;2.78;2.67;;;;;;;0.82;100.00;100382.47;4340908;32;20147;-72
2021/12/11 02:49:56;;;;;;;2.60;2.50;;;;;;;0.84;100.00;100386.72;4331618;32;20082;-72
2021/12/11 02:52:54;;;;;;;2.60;2.50;;;;;;;0.92;100.00;100400.41;4313315;32;20082;-72
2021/12/11 02:55:22;;;;;;;2.67;2.58;;;;;;;0.41;100.00;100317.75;4296119;32;20436;-71
2021/12/11 02:58:00;;;;;;;3.92;3.78;;;;;;;0.90;100.00;100401.28;4307859;32;20071;-72
2021/12/11 03:00:40;;;;;;;2.50;2.40;;;;;;;0.88;100.00;100403.91;4314683;32;20091;-72
2021/12/11 03:03:08;;;;;;;3.05;2.95;;;;;;;0.89;100.00;100400.44;4304570;32;20075;-71
2021/12/11 03:05:54;;;;;;;3.30;3.10;;;;;;;0.86;100.00;100405.63;4342916;32;20217;-74
2021/12/11 03:08:20;;;;;;;2.67;2.58;;;;;;;0.81;100.00;100404.03;4340183;32;20098;-72
2021/12/11 03:10:52;;;;;;;4.28;4.07;;;;;;;0.92;100.00;100413.31;4376327;32;20067;-73
2021/12/11 03:13:18;;;;;;;2.40;2.30;;;;;;;0.86;100.00;100415.97;4294096;32;20205;-72
2021/12/11 03:15:43;;;;;;;4.45;3.80;;;;;;;0.86;100.00;100425.47;4302678;32;20071;-72
2021/12/11 03:18:09;;;;;;;2.40;2.30;;;;;;;0.87;100.00;100432.34;4288544;32;20071;-71
2021/12/11 03:20:36;;;;;;;3.33;3.15;;;;;;;0.91;100.00;100444.34;4292891;32;20063;-73
2021/12/11 03:23:01;;;;;;;2.60;2.50;;;;;;;0.46;100.00;100382.19;4313160;32;20475;-70
2021/12/11 03:25:27;;;;;;;3.28;3.12;;;;;;;0.92;100.00;100444.31;4291342;32;20056;-71
2021/12/11 03:27:53;;;;;;;3.47;3.37;;;;;;;0.87;100.00;100442.69;4312189;32;20674;-71
2021/12/11 03:30:24;;;;;;;2.67;2.58;;;;;;;0.93;100.00;100452.91;4290346;32;20086;-72
2021/12/11 03:32:51;;;;;;;3.70;3.60;;;;;;;0.93;100.00;100450.31;4327461;32;20060;-70
2021/12/11 03:35:16;;;;;;;2.60;2.50;;;;;;;0.92;100.00;100456.34;4300801;32;20182;-70
2021/12/11 03:37:42;;;;;;;3.83;3.70;;;;;;;0.93;100.00;100458.91;4304170;33;20071;-72
2021/12/11 03:40:08;;;;;;;3.05;2.95;;;;;;;0.84;100.00;100447.88;4302498;33;20087;-71
2021/12/11 03:42:35;;;;;;;2.53;2.42;;;;;;;0.90;100.00;100465.88;4317083;32;20082;-72
2021/12/11 03:45:04;;;;;;;3.12;3.03;;;;;;;0.86;100.00;100467.63;4323923;32;20178;-70
2021/12/11 03:47:32;;;;;;;2.50;2.40;;;;;;;0.74;100.00;100450.63;4313972;32;20091;-70
2021/12/11 03:49:57;;;;;;;3.28;3.08;;;;;;;0.89;100.00;100477.09;4339193;32;20102;-71
2021/12/11 03:52:22;;;;;;;3.35;3.15;;;;;;;0.81;100.00;100503.03;4313260;32;20490;-71
2021/12/11 03:54:50;;;;;;;4.03;3.85;;;;;;;0.72;100.00;100480.78;4335179;32;20081;-71
2021/12/11 03:57:17;;;;;;;2.50;2.40;;;;;;;0.62;100.00;100478.34;4319918;33;20079;-72
2021/12/11 03:59:47;;;;;;;4.10;3.90;;;;;;;0.67;100.00;100489.47;4314013;32;20644;-73
2021/12/11 04:02:14;;;;;;;3.25;3.08;;;;;;;0.68;100.00;100496.34;4320944;32;20136;-71
2021/12/11 04:04:45;;;;;;;4.05;3.85;;;;;;;0.69;100.00;100504.06;4315658;32;20067;-72
2021/12/11 04:07:12;;;;;;;2.75;2.65;;;;;;;0.71;100.00;100509.22;4321010;32;20079;-74
2021/12/11 04:09:38;;;;;;;3.97;3.78;;;;;;;0.60;100.00;100491.28;4330712;32;20110;-71
2021/12/11 04:12:03;;;;;;;3.40;3.20;;;;;;;0.76;100.00;100518.63;4341135;32;20079;-73
2021/12/11 04:14:31;;;;;;;2.37;2.28;;;;;;;0.74;100.00;100520.38;4320556;32;20094;-73
2021/12/11 04:16:56;;;;;;;2.65;2.55;;;;;;;0.70;100.00;100523.88;4315908;32;20074;-72
2021/12/11 04:19:22;;;;;;;3.17;2.97;;;;;;;-0.72;100.00;100295.31;4336244;32;20487;-72
2021/12/11 04:21:48;;;;;;;3.83;3.62;;;;;;;0.72;100.00;100540.19;4304712;32;20063;-72
2021/12/11 04:24:15;;;;;;;2.60;2.50;;;;;;;0.71;100.00;100538.47;4336786;32;20124;-71
2021/12/11 04:26:40;;;;;;;3.65;3.55;;;;;;;0.74;100.00;100545.31;4323083;32;20133;-71
2021/12/11 04:29:06;;;;;;;2.37;2.28;;;;;;;0.79;100.00;100552.13;4306022;32;20082;-73
2021/12/11 04:31:32;;;;;;;3.08;2.97;;;;;;;0.82;100.00;100556.41;4320503;32;20079;-71
2021/12/11 04:34:02;;;;;;;2.80;2.70;;;;;;;0.83;100.00;100555.53;4314334;33;20505;-71
2021/12/11 04:36:33;;;;;;;2.80;2.70;;;;;;;0.85;100.00;100565.84;4316918;32;20078;-71
2021/12/11 04:38:59;;;;;;;2.80;2.70;;;;;;;0.87;100.00;100569.25;4330673;32;20083;-71
2021/12/11 04:41:34;;;;;;;2.62;2.53;;;;;;;0.90;100.00;100574.38;4328378;32;20085;-72
2021/12/11 04:44:01;;;;;;;2.60;2.50;;;;;;;0.93;100.00;100576.94;4336494;32;21538;-72
2021/12/11 04:46:26;;;;;;;3.30;3.20;;;;;;;0.94;100.00;100576.91;4337375;32;20094;-71
2021/12/11 04:49:14;;;;;;;3.78;3.60;;;;;;;0.93;100.00;100580.34;4329975;32;20272;-70
2021/12/11 05:02:03;;;;;;;2.60;2.50;;;;;;;0.98;100.00;100598.38;4321096;32;20890;-70
2021/12/11 05:07:35;;;;;;;2.60;2.50;;;;;;;0.99;100.00;100597.50;4320610;32;20085;-70
2021/12/11 05:10:21;;;;;;;2.65;2.55;;;;;;;0.94;100.00;100596.69;4318396;33;20628;-71
2021/12/11 05:12:48;;;;;;;2.70;2.60;;;;;;;0.52;100.00;100550.81;4306736;32;20698;-71
2021/12/11 05:15:19;;;;;;;2.80;2.70;;;;;;;0.95;100.00;100611.34;4307607;32;20281;-70
2021/12/11 05:17:44;;;;;;;2.83;2.72;;;;;;;1.00;100.00;100606.94;4309510;32;20071;-73
2021/12/11 05:20:11;;;;;;;2.95;2.85;;;;;;;1.02;100.00;100612.94;4316722;32;20106;-71
2021/12/11 05:22:36;;;;;;;3.05;2.95;;;;;;;1.06;100.00;100622.38;4313077;33;20566;-71
2021/12/11 05:25:04;;;;;;;3.30;3.20;;;;;;;1.06;100.00;100624.09;4317614;32;20095;-69
2021/12/11 05:27:30;;;;;;;2.60;2.50;;;;;;;1.09;100.00;100629.25;4317039;32;20749;-72
2021/12/11 05:29:55;;;;;;;4.53;4.05;;;;;;;1.06;100.00;100621.53;4313065;32;20079;-71
2021/12/11 05:32:22;;;;;;;2.92;2.83;;;;;;;1.08;100.00;100630.94;4315150;32;20090;-70
2021/12/11 05:34:47;;;;;;;4.85;4.55;;;;;;;1.08;100.00;100648.19;4313117;32;20089;-70
2021/12/11 05:37:13;;;;;;;3.05;2.95;;;;;;;1.11;100.00;100648.16;4326505;32;20066;-70
2021/12/11 05:39:38;;;;;;;31.95;5.07;;;;;;;1.11;100.00;100658.50;4329331;32;20093;-70
2021/12/11 05:42:04;;;;;;;2.67;2.58;;;;;;;0.99;100.00;100633.69;4319012;32;20578;-70
2021/12/11 05:44:29;;;;;;;2.72;2.62;;;;;;;1.12;100.00;100663.66;4358488;32;20325;-69
2021/12/11 05:46:54;;;;;;;2.75;2.65;;;;;;;1.05;100.00;100648.25;4313776;32;20550;-71
2021/12/11 05:49:20;;;;;;;2.85;2.75;;;;;;;0.62;100.00;100581.66;4316236;32;20415;-70
2021/12/11 05:51:46;;;;;;;3.95;3.80;;;;;;;1.18;100.00;100675.62;4323101;32;20125;-69
2021/12/11 05:54:15;;;;;;;2.97;2.87;;;;;;;1.20;100.00;100673.88;4338514;32;20129;-70
2021/12/11 05:56:41;;;;;;;3.40;3.30;;;;;;;1.22;100.00;100686.78;4326351;32;20497;-72
2021/12/11 05:59:08;;;;;;;3.00;2.90;;;;;;;1.21;100.00;100685.09;4333807;32;20099;-70
2021/12/11 06:01:40;;;;;;;2.80;2.70;;;;;;;1.22;100.00;100697.97;4327053;32;20125;-72
2021/12/11 06:04:17;;;;;;;2.50;2.40;;;;;;;1.22;100.00;100695.38;4328058;32;20091;-72
2021/12/11 06:06:43;;;;;;;3.95;3.80;;;;;;;1.23;100.00;100699.69;4327874;32;20217;-73
2021/12/11 06:09:10;;;;;;;3.62;3.47;;;;;;;1.26;100.00;100701.37;4299607;32;20091;-71
2021/12/11 06:11:35;;;;;;;2.78;2.67;;;;;;;1.27;100.00;100706.53;4327669;32;20075;-71
2021/12/11 06:14:02;;;;;;;2.80;2.70;;;;;;;1.30;100.00;100708.19;4316656;32;20707;-71
2021/12/11 06:16:27;;;;;;;2.97;2.87;;;;;;;0.02;100.00;100497.22;4313721;33;20676;-71
2021/12/11 06:18:53;;;;;;;3.37;3.28;;;;;;;1.33;100.00;100715.94;4328087;32;20457;-73
2021/12/11 06:21:20;;;;;;;3.65;3.42;;;;;;;1.34;100.00;100717.63;4330913;32;20593;-73
2021/12/11 06:23:46;;;;;;;4.07;3.87;;;;;;;1.35;100.00;100725.37;4313718;32;20090;-71
2021/12/11 06:26:11;;;;;;;2.95;2.85;;;;;;;1.38;100.00;100727.03;4338212;32;20069;-70
2021/12/11 06:28:37;;;;;;;3.28;3.15;;;;;;;1.31;100.00;100777.16;4336974;32;20710;-70
2021/12/11 06:31:05;;;;;;;2.50;2.40;;;;;;;1.40;100.00;100740.81;4329754;32;20463;-70
2021/12/11 06:33:33;;;;;;;2.80;2.70;;;;;;;1.17;100.00;100703.19;4300634;33;20086;-70
2021/12/11 06:36:02;;;;;;;2.83;2.72;;;;;;;1.20;100.00;100717.81;4334353;32;20101;-72
2021/12/11 06:38:29;;;;;;;3.10;3.00;;;;;;;1.43;100.00;100750.28;4303618;32;20097;-73
2021/12/11 06:40:55;;;;;;;3.10;3.00;;;;;;;0.80;100.00;100658.88;4317005;32;21017;-71
2021/12/11 06:43:20;;;;;;;2.70;2.60;;;;;;;1.44;100.00;100764.91;4305283;32;20071;-71
2021/12/11 06:45:46;;;;;;;2.85;2.75;;;;;;;1.46;100.00;100765.72;4326078;32;20078;-71
2021/12/11 06:48:12;;;;;;;2.80;2.70;;;;;;;1.45;100.00;100762.31;4323489;32;20078;-71
2021/12/11 06:50:37;;;;;;;3.10;3.00;;;;;;;1.47;100.00;100776.06;4339508;32;20871;-70
2021/12/11 06:53:07;;;;;;;2.90;2.80;;;;;;;1.47;100.00;100773.47;4334120;32;20286;-70
2021/12/11 06:55:32;;;;;;;2.78;2.67;;;;;;;1.49;100.00;100782.06;4330992;32;20253;-70
2021/12/11 06:57:57;;;;;;;2.62;2.53;;;;;;;1.49;100.00;100771.72;4338988;32;20623;-70
2021/12/11 07:00:23;;;;;;;2.70;2.60;;;;;;;1.51;100.00;100787.22;4335542;32;20110;-71
2021/12/11 07:02:48;;;;;;;2.97;2.87;;;;;;;1.46;100.00;100784.69;4342199;32;20651;-69
2021/12/11 07:05:13;;;;;;;2.80;2.70;;;;;;;1.50;100.00;100798.44;4349276;32;20077;-70
2021/12/11 07:07:41;;;;;;;2.75;2.65;;;;;;;1.43;100.00;100796.81;4334081;32;20557;-72
2021/12/11 07:10:07;;;;;;;2.62;2.53;;;;;;;1.31;100.00;100803.84;4357232;32;20081;-71
2021/12/11 07:12:33;;;;;;;2.70;2.60;;;;;;;1.19;100.00;100798.84;4340089;32;20216;-70
2021/12/11 07:14:58;;;;;;;3.28;3.17;;;;;;;1.13;100.00;100804.91;4344723;32;20497;-69
2021/12/11 07:17:24;;;;;;;2.85;2.75;;;;;;;0.99;100.00;100794.75;4323474;32;20678;-70
2021/12/11 07:19:49;;;;;;;4.35;4.15;;;;;;;1.07;100.00;100825.66;4342318;32;20054;-71
2021/12/11 07:22:14;;;;;;;2.70;2.60;;;;;;;0.99;100.00;100810.25;4320557;32;20085;-69
2021/12/11 07:24:43;;;;;;;5.22;3.90;;;;;;;1.07;100.00;100830.84;4322682;32;20205;-69
2021/12/11 07:27:09;;;;;;;2.60;2.50;;;;;;;1.11;100.00;100832.50;4358866;32;20090;-68
2021/12/11 07:29:35;;;;;;;3.35;3.25;;;;;;;1.17;100.00;100842.78;4264290;32;20066;-68
2021/12/11 07:32:01;;;;;;;2.60;2.50;;;;;;;1.23;100.00;100869.44;4357614;32;20098;-68
2021/12/11 07:34:26;;;;;;;2.90;2.80;;;;;;;1.25;100.00;100847.88;4346044;32;20143;-68
2021/12/11 07:36:52;;;;;;;2.80;2.70;;;;;;;1.31;100.00;100852.97;4325086;32;20066;-68
2021/12/11 07:39:18;;;;;;;2.60;2.50;;;;;;;1.35;100.00;100859.81;4330829;32;20077;-68
2021/12/11 07:41:44;;;;;;;4.55;4.35;;;;;;;1.38;100.00;100859.78;4319239;32;20070;-68
2021/12/11 07:44:09;;;;;;;2.80;2.67;;;;;;;1.45;100.00;100868.31;4327949;32;20204;-68
2021/12/11 07:46:35;;;;;;;3.97;3.70;;;;;;;1.36;100.00;100848.62;4340953;32;20062;-68
2021/12/11 07:49:02;;;;;;;3.40;3.30;;;;;;;1.50;100.00;100874.28;4330724;32;20197;-68
2021/12/11 07:51:27;;;;;;;3.37;3.17;;;;;;;1.51;100.00;100886.34;4349157;32;20643;-68
2021/12/11 07:53:53;;;;;;;3.20;3.10;;;;;;;1.51;100.00;100882.91;4392581;32;20080;-65
2021/12/11 07:56:20;;;;;;;2.90;2.80;;;;;;;1.50;100.00;100879.47;4373220;32;20061;-71
2021/12/11 07:58:46;;;;;;;4.55;4.35;;;;;;;1.66;100.00;100897.38;4367711;32;20073;-69
2021/12/11 08:01:11;;;;;;;2.92;2.83;;;;;;;1.68;100.00;100893.06;4371342;32;20070;-68
2021/12/11 08:03:37;;;;;;;4.72;4.47;;;;;;;1.71;100.00;100900.78;4392967;32;20649;-70
2021/12/11 08:06:03;;;;;;;3.05;2.95;;;;;;;1.75;100.00;100902.47;4374850;32;20548;-70
2021/12/11 08:08:28;;;;;;;2.80;2.70;;;;;;;1.79;100.00;100912.75;4343360;32;20460;-69
2021/12/11 08:10:56;;;;;;;4.60;4.32;;;;;;;1.83;100.00;100910.12;4333666;32;20075;-68
2021/12/11 08:13:22;;;;;;;2.95;2.85;;;;;;;1.53;100.00;100856.16;4338267;32;20581;-69
2021/12/11 08:15:47;;;;;;;4.95;4.70;;;;;;;1.85;100.00;100919.59;4323999;32;20144;-67
2021/12/11 08:18:13;;;;;;;2.60;2.50;;;;;;;1.86;100.00;100916.09;4396590;32;20322;-69
2021/12/11 08:20:40;;;;;;;4.20;4.00;;;;;;;1.89;100.00;100925.59;4392686;32;21011;-71
2021/12/11 08:23:05;;;;;;;3.35;3.25;;;;;;;1.91;100.00;100922.09;4404998;32;20114;-68
2021/12/11 08:25:32;;;;;;;3.72;3.55;;;;;;;1.04;100.00;100771.41;4397814;32;20656;-71
2021/12/11 08:27:58;;;;;;;3.83;3.62;;;;;;;2.03;100.00;100933.16;4415334;32;20593;-68
2021/12/11 08:30:27;;;;;;;3.03;2.92;;;;;;;2.03;100.00;100938.34;4395939;32;20073;-70
2021/12/11 08:32:53;;;;;;;4.35;4.15;;;;;;;2.11;100.00;100949.44;4404611;32;20096;-71
2021/12/11 08:35:18;;;;;;;3.00;2.90;;;;;;;2.16;100.00;100966.63;4395692;32;20079;-71
2021/12/11 08:37:45;;;;;;;4.30;4.10;;;;;;;2.22;100.00;100947.56;4404818;32;20177;-71
2021/12/11 08:40:13;;;;;;;3.40;3.20;;;;;;;2.26;100.00;100948.38;4401104;32;20079;-71
2021/12/11 08:42:38;;;;;;;3.30;3.17;;;;;;;2.27;100.00;100944.94;4402015;32;20154;-69
2021/12/11 08:45:06;;;;;;;2.72;2.62;;;;;;;2.32;100.00;100964.69;4391883;32;20076;-70
2021/12/11 08:47:33;;;;;;;3.78;3.60;;;;;;;2.35;100.00;100968.97;4407346;32;20470;-70
2021/12/11 08:49:59;;;;;;;2.90;2.80;;;;;;;2.36;100.00;100963.75;4388649;32;20622;-71
2021/12/11 08:52:33;;;;;;;3.10;3.00;;;;;;;2.38;100.00;100974.94;4393043;32;20138;-73
2021/12/11 08:54:58;;;;;;;3.00;2.90;;;;;;;2.36;100.00;100973.25;4388916;32;20143;-70
2021/12/11 08:57:29;;;;;;;2.97;2.87;;;;;;;2.42;100.00;100988.72;4385443;32;20085;-73
2021/12/11 08:59:57;;;;;;;3.45;3.30;;;;;;;1.85;100.00;100885.09;4396970;32;20669;-72
2021/12/11 09:02:23;;;;;;;3.00;2.90;;;;;;;2.42;100.00;100983.53;4340632;32;20534;-73
2021/12/11 09:04:57;;;;;;;3.00;2.90;;;;;;;2.43;100.00;100980.09;4338470;32;20201;-69
2021/12/11 09:07:31;;;;;;;3.00;2.90;;;;;;;2.38;100.00;100969.75;4403123;32;20085;-71
2021/12/11 09:10:02;;;;;;;3.03;2.92;;;;;;;2.44;100.00;100974.00;4395697;32;20607;-71
2021/12/11 09:12:34;;;;;;;3.33;3.22;;;;;;;1.64;100.00;100847.41;4395248;32;20179;-70
2021/12/11 09:15:07;;;;;;;4.32;4.12;;;;;;;1.31;100.00;100795.25;4421848;32;20073;-73
2021/12/11 09:17:35;;;;;;;3.80;3.60;;;;;;;1.16;100.00;100794.56;4336874;32;20216;-72
2021/12/11 09:20:11;;;;;;;3.72;3.55;;;;;;;2.45;100.00;100991.28;4330274;32;21852;-69
2021/12/11 09:22:46;;;;;;;5.12;4.53;;;;;;;2.47;100.00;101019.75;4400019;32;20120;-70
2021/12/11 09:25:16;;;;;;;3.60;3.47;;;;;;;2.50;100.00;100991.22;4409556;32;20306;-68
2021/12/11 09:28:10;;;;;;;4.57;4.37;;;;;;;2.50;100.00;100998.97;4390485;32;20551;-70
2021/12/11 09:30:41;;;;;;;3.55;3.42;;;;;;;2.54;100.00;100992.87;4407673;32;20188;-69
2021/12/11 09:33:20;;;;;;;3.90;3.70;;;;;;;2.54;100.00;101005.81;4411037;32;20065;-69
2021/12/11 09:35:54;;;;;;;3.65;3.55;;;;;;;2.53;100.00;101004.97;4392227;32;20073;-70
2021/12/11 09:38:34;;;;;;;3.70;3.47;;;;;;;2.56;100.00;101007.50;4377954;32;20176;-70
2021/12/11 09:41:21;;;;;;;2.90;2.80;;;;;;;2.60;100.00;101011.78;4383338;32;20146;-69
2021/12/11 09:44:00;;;;;;;4.72;4.53;;;;;;;2.64;100.00;101012.59;4403446;32;20107;-70
2021/12/11 09:46:31;;;;;;;3.05;2.95;;;;;;;2.65;100.00;101013.47;4388822;32;20571;-69
2021/12/11 09:48:57;;;;;;;3.25;3.15;;;;;;;2.56;100.00;100999.72;4399135;32;20095;-69
2021/12/11 09:51:26;;;;;;;3.15;3.05;;;;;;;2.75;100.00;101009.84;4393386;32;20475;-69
2021/12/11 09:53:54;;;;;;;4.50;4.30;;;;;;;2.83;100.00;101009.72;4393770;32;20077;-69
2021/12/11 09:56:30;;;;;;;2.90;2.80;;;;;;;2.91;100.00;101011.34;4374578;32;20679;-71
2021/12/11 09:58:57;;;;;;;3.87;3.67;;;;;;;2.84;100.00;100994.16;4346945;32;20078;-71
2021/12/11 10:01:27;;;;;;;3.10;3.00;;;;;;;3.00;100.00;101023.28;4349289;32;20073;-70
2021/12/11 10:03:56;;;;;;;3.15;3.00;;;;;;;3.06;100.00;101024.94;4412213;32;20065;-72
2021/12/11 10:06:44;;;;;;;3.50;3.30;;;;;;;3.15;100.00;101025.66;4415707;32;20410;-72
2021/12/11 10:09:19;;;;;;;3.00;2.90;;;;;;;3.24;100.00;101032.41;4413604;32;20080;-71
2021/12/11 10:11:55;;;;;;;4.05;3.85;;;;;;;3.31;100.00;101028.00;4403626;32;20081;-70
2021/12/11 10:14:24;;;;;;;3.00;2.90;;;;;;;3.34;100.00;101033.13;4388093;32;20602;-72
2021/12/11 10:16:51;;;;;;;4.95;4.75;;;;;;;3.29;100.00;101035.78;4381558;32;20498;-68
2021/12/11 10:19:18;;;;;;;3.10;3.00;;;;;;;3.29;100.00;101038.38;4398681;32;20083;-67
2021/12/11 10:23:52;;;;;;;4.55;4.25;;;;;;;3.28;100.00;101046.19;4437094;31;20171;-66
2021/12/11 10:26:20;;;;;;;2.97;2.87;;;;;;;3.23;100.00;101032.41;4393002;32;20281;-65
2021/12/11 10:28:48;;;;;;;3.87;3.72;;;;;;;3.32;100.00;101030.53;4385082;32;20172;-65
2021/12/11 10:31:16;;;;;;;2.80;2.70;;;;;;;3.37;100.00;101030.47;4382203;32;20081;-64
2021/12/11 10:33:41;;;;;;;4.53;4.32;;;;;;;3.47;100.00;101028.56;4381729;32;20093;-69
2021/12/11 10:36:10;;;;;;;3.12;3.03;;;;;;;3.52;100.00;101039.72;4371488;32;20076;-68
2021/12/11 10:38:35;;;;;;;3.70;3.50;;;;;;;3.58;100.00;101048.25;4390961;32;20060;-68
2021/12/11 10:41:02;;;;;;;3.20;3.10;;;;;;;3.59;100.00;101054.31;4377440;32;20069;-68
2021/12/11 10:43:30;;;;;;;3.22;3.12;;;;;;;3.31;100.00;101004.66;4376299;32;20131;-68
2021/12/11 10:45:56;;;;;;;3.65;3.53;;;;;;;3.57;100.00;101046.56;4390833;32;20308;-68
2021/12/11 10:48:24;;;;;;;3.17;3.08;;;;;;;3.57;100.00;101062.12;4371872;32;20486;-69
2021/12/11 10:51:17;;;;;;;5.35;5.00;;;;;;;1.91;100.00;100778.91;4380703;32;20079;-68
2021/12/11 10:53:46;;;;;;;3.83;3.72;;;;;;;3.59;100.00;101062.09;4389009;32;20536;-69
2021/12/11 10:56:14;;;;;;;3.87;3.67;;;;;;;3.63;100.00;101060.28;4386780;32;20089;-69
2021/12/11 10:58:50;;;;;;;4.07;3.90;;;;;;;3.66;100.00;101061.09;4378308;32;20073;-69
2021/12/11 11:01:19;;;;;;;3.20;3.10;;;;;;;3.65;100.00;101056.81;4376666;32;20504;-68
2021/12/11 11:03:51;;;;;;;4.78;4.57;;;;;;;3.72;100.00;101058.38;4376228;32;20203;-68
2021/12/11 11:06:17;;;;;;;3.50;3.40;;;;;;;3.78;100.00;101066.06;4390484;32;20096;-69
2021/12/11 11:08:42;;;;;;;4.25;4.05;;;;;;;3.82;100.00;101064.28;4388417;32;20156;-68
2021/12/11 11:11:12;;;;;;;4.20;3.70;;;;;;;3.86;100.00;101060.72;4388693;32;20072;-68
2021/12/11 11:13:38;;;;;;;3.70;3.50;;;;;;;3.77;100.00;101029.78;4389833;32;20066;-69
2021/12/11 11:16:03;;;;;;;3.00;2.90;;;;;;;3.99;100.00;101066.56;4386047;32;20100;-69
2021/12/11 11:18:29;;;;;;;3.00;2.90;;;;;;;4.06;100.00;101060.34;4390165;32;20130;-69
2021/12/11 11:20:59;;;;;;;3.67;3.47;;;;;;;4.12;100.00;101064.59;4388968;32;20143;-69
2021/12/11 11:23:24;;;;;;;3.00;2.90;;;;;;;4.18;100.00;101069.66;4395906;32;20251;-70
2021/12/11 11:25:52;;;;;;;5.28;4.93;;;;;;;4.19;100.00;101061.00;4389740;32;20292;-70
2021/12/11 11:28:19;;;;;;;3.12;3.03;;;;;;;4.34;100.00;101065.84;4386241;32;20382;-67
2021/12/11 11:30:48;;;;;;;5.25;4.87;;;;;;;4.42;100.00;101070.06;4387585;32;20068;-69
2021/12/11 11:33:17;;;;;;;3.40;3.30;;;;;;;4.44;100.00;101073.47;4389436;32;20081;-69
2021/12/11 11:35:44;;;;;;;4.20;4.00;;;;;;;4.48;100.00;101081.16;4364271;32;20196;-69
2021/12/11 11:38:13;;;;;;;5.03;4.00;;;;;;;4.51;100.00;101075.91;4380613;32;20085;-70
2021/12/11 11:40:40;;;;;;;4.37;4.18;;;;;;;4.49;100.00;101069.03;4375590;32;20449;-69
2021/12/11 11:43:06;;;;;;;3.20;3.10;;;;;;;4.56;100.00;101084.47;4364764;32;20473;-69
2021/12/11 11:45:31;;;;;;;3.33;3.22;;;;;;;4.54;100.00;101072.38;4371301;32;20069;-69
2021/12/11 11:47:57;;;;;;;4.12;3.92;;;;;;;4.67;100.00;101089.44;4363638;32;20089;-69
2021/12/11 11:50:25;;;;;;;3.30;3.20;;;;;;;4.59;100.00;101071.41;4381827;32;20196;-69
2021/12/11 11:52:50;;;;;;;4.55;4.35;;;;;;;4.76;100.00;101091.81;4378103;32;20076;-69